createdAt,value
2022-08-07T00:00:18.690Z,62.71
2022-08-07T00:02:47.268Z,61.43
2022-08-07T00:05:15.237Z,60.92
2022-08-07T00:07:42.769Z,62.89
2022-08-07T00:10:30.393Z,62.15
2022-08-07T00:13:02.043Z,60.39
2022-08-07T00:15:38.082Z,61.69
2022-08-07T00:18:20.264Z,61.21
2022-08-07T00:20:55.124Z,62.40
2022-08-07T00:23:24.556Z,63.41
2022-08-07T00:26:00.073Z,61.45
2022-08-07T00:28:33.572Z,61.73
2022-08-07T00:31:05.959Z,60.33
2022-08-07T00:33:35.645Z,61.92
2022-08-07T00:36:04.391Z,59.85
2022-08-07T00:38:33.364Z,58.94
2022-08-07T00:41:01.384Z,57.55
2022-08-07T00:44:02.024Z,61.20
2022-08-07T00:46:16.892Z,61.61
2022-08-07T00:48:45.689Z,61.18
2022-08-07T00:51:17.619Z,59.54
2022-08-07T00:53:50.775Z,63.16
2022-08-07T00:56:23.526Z,62.18
2022-08-07T00:58:58.866Z,61.15
2022-08-07T01:01:26.656Z,62.53
2022-08-07T01:04:00.033Z,64.90
2022-08-07T01:06:29.462Z,63.85
2022-08-07T01:08:58.564Z,63.16
2022-08-07T01:12:10.064Z,62.88
2022-08-07T01:14:21.304Z,65.38
2022-08-07T01:16:56.890Z,64.16
2022-08-07T01:19:27.147Z,63.56
2022-08-07T01:22:00.470Z,60.94
2022-08-07T01:24:31.108Z,63.03
2022-08-07T01:27:00.348Z,65.16
2022-08-07T01:29:31.444Z,62.10
2022-08-07T01:32:05.444Z,62.13
2022-08-07T01:34:33.750Z,62.98
2022-08-07T01:37:02.408Z,60.34
2022-08-07T01:39:41.154Z,63.56
2022-08-07T01:42:37.994Z,63.14
2022-08-07T01:45:10.089Z,63.29
2022-08-07T01:48:18.254Z,63.38
2022-08-07T01:50:38.323Z,59.96
2022-08-07T01:53:21.095Z,61.00
2022-08-07T01:55:53.806Z,60.90
2022-08-07T01:58:29.451Z,61.74
2022-08-07T02:01:09.703Z,60.67
2022-08-07T02:03:48.552Z,62.03
2022-08-07T02:06:31.867Z,63.44
2022-08-07T02:09:04.393Z,60.60
2022-08-07T02:12:03.894Z,60.11
2022-08-07T02:14:40.403Z,63.86
2022-08-07T02:17:13.594Z,64.78
2022-08-07T02:20:04.525Z,62.15
2022-08-07T02:22:38.288Z,59.71
2022-08-07T02:25:13.907Z,59.27
2022-08-07T02:27:51.952Z,61.77
2022-08-07T02:30:21.148Z,64.30
2022-08-07T02:33:01.009Z,63.86
2022-08-07T02:36:29.028Z,63.22
2022-08-07T02:38:31.895Z,62.42
2022-08-07T02:41:01.368Z,61.24
2022-08-07T02:43:33.826Z,64.91
2022-08-07T02:46:02.850Z,61.37
2022-08-07T02:48:31.660Z,60.78
2022-08-07T02:51:06.731Z,62.67
2022-08-07T02:53:38.883Z,64.01
2022-08-07T02:56:17.547Z,60.06
2022-08-07T02:58:50.798Z,61.65
2022-08-07T03:01:36.123Z,60.91
2022-08-07T03:04:13.059Z,62.43
2022-08-07T03:06:45.939Z,59.55
2022-08-07T03:09:14.763Z,60.97
2022-08-07T03:12:05.320Z,59.33
2022-08-07T03:14:36.370Z,59.10
2022-08-07T03:17:05.358Z,60.01
2022-08-07T03:19:37.411Z,62.80
2022-08-07T03:22:06.821Z,61.34
2022-08-07T03:24:34.901Z,58.97
2022-08-07T03:27:09.053Z,59.57
2022-08-07T03:29:46.183Z,62.22
2022-08-07T03:32:29.728Z,62.39
2022-08-07T03:35:01.077Z,60.26
2022-08-07T03:37:54.107Z,61.75
2022-08-07T03:40:30.837Z,62.22
2022-08-07T03:43:00.580Z,59.32
2022-08-07T03:45:31.041Z,59.02
2022-08-07T03:48:00.728Z,62.45
2022-08-07T03:50:30.006Z,62.60
2022-08-07T03:52:59.857Z,59.80
2022-08-07T03:55:46.097Z,61.10
2022-08-07T03:59:06.730Z,60.94
2022-08-07T04:01:13.876Z,60.10
2022-08-07T04:03:53.650Z,60.01
2022-08-07T04:06:37.594Z,59.69
2022-08-07T04:09:08.359Z,62.02
2022-08-07T04:12:24.614Z,61.98
2022-08-07T04:14:38.144Z,61.31
2022-08-07T04:17:19.928Z,63.84
2022-08-07T04:19:52.877Z,61.74
2022-08-07T04:22:29.341Z,62.05
2022-08-07T04:25:01.102Z,64.01
2022-08-07T04:27:35.704Z,61.09
2022-08-07T04:30:11.662Z,60.42
2022-08-07T04:32:44.933Z,62.74
2022-08-07T04:35:16.464Z,61.89
2022-08-07T04:38:02.842Z,61.60
2022-08-07T04:40:32.404Z,59.85
2022-08-07T04:43:01.945Z,62.20
2022-08-07T04:46:01.693Z,63.15
2022-08-07T04:48:38.553Z,63.73
2022-08-07T04:51:28.544Z,60.43
2022-08-07T04:54:33.326Z,60.25
2022-08-07T04:58:24.121Z,62.63
2022-08-07T05:00:30.641Z,64.09
2022-08-07T05:03:16.786Z,59.77
2022-08-07T05:06:16.422Z,61.61
2022-08-07T05:09:00.878Z,59.89
2022-08-07T05:11:57.035Z,58.99
2022-08-07T05:14:52.508Z,60.53
2022-08-07T05:17:51.548Z,61.70
2022-08-07T05:20:12.414Z,60.42
2022-08-07T05:22:41.779Z,63.63
2022-08-07T05:25:11.754Z,63.11
2022-08-07T05:28:03.550Z,64.73
2022-08-07T05:30:42.922Z,64.94
2022-08-07T05:33:11.899Z,65.84
2022-08-07T05:35:41.918Z,62.46
2022-08-07T05:38:10.751Z,62.61
2022-08-07T05:40:50.290Z,59.95
2022-08-07T05:43:19.483Z,61.47
2022-08-07T05:46:07.299Z,60.98
2022-08-07T05:48:35.533Z,58.19
2022-08-07T05:51:04.021Z,57.64
2022-08-07T05:54:12.940Z,58.61
2022-08-07T05:56:29.926Z,57.96
2022-08-07T05:58:59.445Z,59.00
2022-08-07T06:01:35.919Z,58.45
2022-08-07T06:04:05.382Z,57.44
2022-08-07T06:06:35.040Z,57.34
2022-08-07T06:09:04.576Z,60.13
2022-08-07T06:11:34.664Z,60.69
2022-08-07T06:14:12.014Z,59.44
2022-08-07T06:16:44.369Z,59.44
2022-08-07T06:19:52.143Z,60.77
2022-08-07T06:22:16.647Z,56.53
2022-08-07T06:25:00.904Z,54.34
2022-08-07T06:27:59.631Z,53.96
2022-08-07T06:30:24.297Z,53.97
2022-08-07T06:33:15.582Z,55.66
2022-08-07T06:35:48.148Z,54.89
2022-08-07T06:38:32.121Z,53.45
2022-08-07T06:41:00.517Z,56.30
2022-08-07T06:43:39.230Z,56.39
2022-08-07T06:46:12.222Z,56.32
2022-08-07T06:48:41.881Z,55.56
2022-08-07T06:51:31.303Z,53.83
2022-08-07T06:55:29.351Z,54.68
2022-08-07T06:56:52.082Z,53.84
2022-08-07T07:00:12.200Z,53.84
2022-08-07T07:02:53.965Z,52.67
2022-08-07T07:05:12.582Z,56.15
2022-08-07T07:07:59.288Z,55.77
2022-08-07T07:10:31.476Z,53.48
2022-08-07T07:13:10.012Z,54.01
2022-08-07T07:15:43.124Z,54.51
2022-08-07T07:18:47.932Z,53.54
2022-08-07T07:21:20.906Z,54.03
2022-08-07T07:24:08.992Z,54.24
2022-08-07T07:26:37.901Z,55.08
2022-08-07T07:29:55.988Z,52.13
2022-08-07T07:32:02.520Z,51.19
2022-08-07T07:34:32.303Z,49.89
2022-08-07T07:37:14.759Z,50.72
2022-08-07T07:39:55.336Z,50.87
2022-08-07T07:42:33.033Z,51.18
2022-08-07T07:45:02.499Z,49.10
2022-08-07T07:47:42.819Z,48.67
2022-08-07T07:50:32.840Z,49.02
2022-08-07T07:53:20.410Z,49.64
2022-08-07T07:55:57.707Z,49.84
2022-08-07T07:58:40.197Z,48.02
2022-08-07T08:02:01.812Z,45.35
2022-08-07T08:04:09.987Z,44.65
2022-08-07T08:06:50.699Z,44.02
2022-08-07T08:09:22.779Z,44.16
2022-08-07T08:12:02.199Z,46.31
2022-08-07T08:14:36.361Z,46.33
2022-08-07T08:17:55.677Z,43.41
2022-08-07T08:20:18.824Z,40.96
2022-08-07T08:23:08.178Z,42.72
2022-08-07T08:25:58.243Z,41.45
2022-08-07T08:28:37.732Z,43.79
2022-08-07T08:31:15.977Z,44.05
2022-08-07T08:33:49.590Z,44.71
2022-08-07T08:36:29.596Z,43.82
2022-08-07T08:39:01.962Z,42.27
2022-08-07T08:41:58.854Z,41.43
2022-08-07T08:44:53.880Z,39.61
2022-08-07T08:47:27.083Z,36.90
2022-08-07T08:50:38.819Z,38.33
2022-08-07T08:53:57.115Z,36.16
2022-08-07T08:56:31.287Z,35.93
2022-08-07T08:59:14.132Z,34.00
2022-08-07T09:01:49.529Z,33.36
2022-08-07T09:04:40.689Z,33.42
2022-08-07T09:07:45.995Z,34.63
2022-08-07T09:10:28.337Z,36.87
2022-08-07T09:13:19.567Z,34.80
2022-08-07T09:16:21.525Z,33.02
2022-08-07T09:19:52.095Z,34.41
2022-08-07T09:24:27.447Z,37.65
2022-08-07T09:25:14.457Z,37.03
2022-08-07T09:28:05.025Z,36.32
2022-08-07T09:30:46.223Z,38.17
2022-08-07T09:33:57.538Z,38.33
2022-08-07T09:36:37.290Z,37.72
2022-08-07T09:39:55.207Z,37.53
2022-08-07T09:42:50.252Z,37.97
2022-08-07T09:47:24.104Z,38.33
2022-08-07T09:50:01.712Z,37.98
2022-08-07T09:52:34.685Z,39.05
2022-08-07T09:55:02.525Z,39.05
2022-08-07T09:57:58.236Z,36.27
2022-08-07T10:00:31.956Z,34.95
2022-08-07T10:04:07.173Z,34.81
2022-08-07T10:06:42.803Z,35.33
2022-08-07T10:10:00.329Z,34.86
2022-08-07T10:12:55.315Z,36.09
2022-08-07T10:15:44.433Z,38.39
2022-08-07T10:18:35.818Z,38.55
2022-08-07T10:21:19.966Z,36.47
2022-08-07T10:24:41.074Z,35.30
2022-08-07T10:27:51.105Z,34.19
2022-08-07T10:30:20.354Z,34.79
2022-08-07T10:33:08.485Z,33.19
2022-08-07T10:36:11.230Z,34.27
2022-08-07T10:38:51.229Z,32.95
2022-08-07T10:41:51.749Z,34.35
2022-08-07T10:44:37.369Z,35.13
2022-08-07T10:47:14.225Z,35.21
2022-08-07T10:49:51.089Z,35.61
2022-08-07T10:52:31.756Z,35.68
2022-08-07T10:55:37.687Z,35.78
2022-08-07T10:58:31.950Z,36.71
2022-08-07T11:01:11.766Z,36.92
2022-08-07T11:03:54.990Z,36.05
2022-08-07T11:06:51.030Z,34.88
2022-08-07T11:10:10.159Z,34.52
2022-08-07T11:12:38.865Z,35.72
2022-08-07T11:15:31.848Z,34.08
2022-08-07T11:21:14.083Z,32.77
2022-08-07T11:23:48.465Z,30.78
2022-08-07T11:26:34.055Z,31.54
2022-08-07T11:29:13.121Z,30.80
2022-08-07T11:32:08.910Z,30.82
2022-08-07T11:34:46.970Z,29.68
2022-08-07T11:37:38.611Z,29.34
2022-08-07T11:40:50.038Z,29.15
2022-08-07T11:43:54.280Z,27.69
2022-08-07T11:46:44.410Z,28.06
2022-08-07T11:50:25.271Z,27.84
2022-08-07T11:53:05.239Z,28.08
2022-08-07T11:56:09.273Z,28.33
2022-08-07T12:00:08.320Z,28.06
2022-08-07T12:02:33.143Z,29.00
2022-08-07T12:05:28.850Z,30.95
2022-08-07T12:08:25.846Z,30.69
2022-08-07T12:11:20.414Z,29.56
2022-08-07T12:14:08.503Z,29.09
2022-08-07T12:16:44.554Z,29.57
2022-08-07T12:19:35.324Z,30.15
2022-08-07T12:22:36.986Z,31.42
2022-08-07T12:26:21.338Z,31.58
2022-08-07T12:28:57.463Z,29.91
2022-08-07T12:32:02.220Z,29.31
2022-08-07T12:34:33.355Z,29.89
2022-08-07T12:37:01.264Z,29.75
2022-08-07T12:39:42.439Z,29.41
2022-08-07T12:42:13.170Z,29.30
2022-08-07T12:44:45.939Z,29.48
2022-08-07T12:47:58.158Z,28.82
2022-08-07T12:50:49.063Z,27.59
2022-08-07T12:53:24.434Z,31.18
2022-08-07T12:56:10.542Z,29.77
2022-08-07T12:58:43.962Z,28.97
2022-08-07T13:01:39.563Z,28.65
2022-08-07T13:04:32.652Z,28.30
2022-08-07T13:07:17.958Z,28.24
2022-08-07T13:10:37.493Z,28.26
2022-08-07T13:13:09.457Z,28.04
2022-08-07T13:16:06.194Z,28.36
2022-08-07T13:18:48.981Z,29.88
2022-08-07T13:21:50.151Z,30.01
2022-08-07T13:24:52.429Z,29.46
2022-08-07T13:28:05.635Z,29.36
2022-08-07T13:30:19.758Z,28.89
2022-08-07T13:34:31.954Z,27.76
2022-08-07T13:36:17.424Z,28.08
2022-08-07T13:39:12.718Z,27.94
2022-08-07T13:41:54.732Z,27.26
2022-08-07T13:44:38.973Z,28.90
2022-08-07T13:47:09.330Z,28.84
2022-08-07T13:50:34.181Z,29.54
2022-08-07T13:52:39.578Z,28.66
2022-08-07T13:55:19.289Z,28.17
2022-08-07T13:58:31.709Z,28.00
2022-08-07T14:01:20.364Z,27.18
2022-08-07T14:04:05.237Z,27.98
2022-08-07T14:06:38.729Z,27.61
2022-08-07T14:09:10.030Z,27.53
2022-08-07T14:12:07.216Z,27.59
2022-08-07T14:14:51.546Z,27.67
2022-08-07T14:18:12.236Z,28.23
2022-08-07T14:20:42.483Z,27.79
2022-08-07T14:23:11.535Z,28.18
2022-08-07T14:25:45.990Z,27.68
2022-08-07T14:28:17.015Z,27.50
2022-08-07T14:30:52.034Z,27.10
2022-08-07T14:33:22.468Z,27.19
2022-08-07T14:35:58.684Z,27.54
2022-08-07T14:38:31.265Z,27.12
2022-08-07T14:41:14.932Z,27.82
2022-08-07T14:43:59.200Z,27.76
2022-08-07T14:46:33.206Z,27.47
2022-08-07T14:49:57.581Z,27.02
2022-08-07T14:52:03.820Z,27.29
2022-08-07T14:54:35.703Z,27.33
2022-08-07T14:57:18.728Z,27.37
2022-08-07T15:05:24.835Z,27.09
2022-08-07T15:07:53.660Z,27.24
2022-08-07T15:13:19.406Z,27.53
2022-08-07T15:15:52.541Z,28.41
2022-08-07T15:18:33.659Z,28.20
2022-08-07T15:26:58.666Z,26.57
2022-08-07T15:30:04.544Z,25.78
2022-08-07T15:35:15.190Z,27.30
2022-08-07T15:38:17.443Z,26.63
2022-08-07T15:40:37.992Z,26.88
2022-08-07T15:43:53.558Z,27.33
2022-08-07T15:46:32.360Z,26.09
2022-08-07T15:49:12.960Z,27.08
2022-08-07T15:54:33.985Z,27.78
2022-08-07T15:57:10.643Z,28.59
2022-08-07T15:59:59.219Z,28.68
2022-08-07T16:02:31.248Z,27.96
2022-08-07T16:05:03.512Z,27.93
2022-08-07T16:08:30.419Z,27.71
2022-08-07T16:10:26.169Z,28.28
2022-08-07T16:13:57.971Z,28.28
2022-08-07T16:16:47.869Z,28.67
2022-08-07T16:19:58.954Z,28.06
2022-08-07T16:22:38.788Z,28.26
2022-08-07T16:25:54.141Z,27.85
2022-08-07T16:30:07.439Z,28.61
2022-08-07T16:31:51.045Z,28.51
2022-08-07T16:34:23.797Z,28.50
2022-08-07T16:37:02.710Z,28.34
2022-08-07T16:40:09.516Z,28.92
2022-08-07T16:43:04.368Z,29.06
2022-08-07T16:46:11.039Z,29.21
2022-08-07T16:50:20.804Z,28.66
2022-08-07T16:52:51.819Z,28.85
2022-08-07T16:55:48.066Z,29.56
2022-08-07T16:59:10.173Z,29.26
2022-08-07T17:01:49.410Z,29.60
2022-08-07T17:04:36.969Z,29.01
2022-08-07T17:07:51.589Z,29.89
2022-08-07T17:10:32.349Z,29.93
2022-08-07T17:13:03.579Z,30.40
2022-08-07T17:15:44.448Z,30.63
2022-08-07T17:18:27.515Z,30.64
2022-08-07T17:20:55.899Z,31.42
2022-08-07T17:23:23.175Z,30.67
2022-08-07T17:26:06.067Z,31.11
2022-08-07T17:30:14.284Z,31.56
2022-08-07T17:32:58.366Z,31.75
2022-08-07T17:35:50.411Z,32.04
2022-08-07T17:38:33.860Z,31.62
2022-08-07T17:42:04.455Z,31.79
2022-08-07T17:44:50.722Z,32.25
2022-08-07T17:47:37.696Z,32.09
2022-08-07T17:50:22.619Z,32.28
2022-08-07T17:53:06.023Z,32.24
2022-08-07T17:56:15.455Z,32.51
2022-08-07T17:58:56.795Z,32.63
2022-08-07T18:01:36.754Z,32.53
2022-08-07T18:04:35.330Z,32.37
2022-08-07T18:07:22.904Z,32.36
2022-08-07T18:10:37.381Z,32.33
2022-08-07T18:13:43.511Z,32.33
2022-08-07T18:16:34.331Z,32.58
2022-08-07T18:21:04.512Z,32.32
2022-08-07T18:22:26.517Z,31.76
2022-08-07T18:25:01.804Z,31.60
2022-08-07T18:28:05.003Z,32.36
2022-08-07T18:31:04.234Z,33.42
2022-08-07T18:33:55.083Z,33.54
2022-08-07T18:37:00.385Z,34.96
2022-08-07T18:40:08.524Z,37.74
2022-08-07T18:42:43.395Z,37.33
2022-08-07T18:45:39.881Z,37.22
2022-08-07T18:50:05.355Z,36.79
2022-08-07T18:52:38.899Z,39.42
2022-08-07T18:54:30.767Z,38.61
2022-08-07T18:57:31.048Z,39.04
2022-08-07T19:00:33.479Z,38.60
2022-08-07T19:03:01.715Z,37.04
2022-08-07T19:06:03.938Z,36.33
2022-08-07T19:08:20.341Z,36.68
2022-08-07T19:11:36.691Z,36.77
2022-08-07T19:14:17.279Z,37.21
2022-08-07T19:17:07.903Z,37.33
2022-08-07T19:19:59.316Z,38.06
2022-08-07T19:22:38.206Z,38.41
2022-08-07T19:26:23.467Z,38.54
2022-08-07T19:28:29.554Z,35.63
2022-08-07T19:31:41.455Z,35.59
2022-08-07T19:33:58.375Z,36.00
2022-08-07T19:36:27.740Z,37.54
2022-08-07T19:38:59.468Z,37.04
2022-08-07T19:41:39.121Z,36.34
2022-08-07T19:44:31.471Z,36.51
2022-08-07T19:47:06.857Z,35.81
2022-08-07T19:49:57.581Z,34.82
2022-08-07T19:52:31.332Z,34.41
2022-08-07T19:54:59.872Z,33.73
2022-08-07T19:57:51.305Z,32.92
2022-08-07T20:00:28.078Z,33.31
2022-08-07T20:03:02.944Z,33.39
2022-08-07T20:05:59.925Z,33.59
2022-08-07T20:08:30.360Z,33.03
2022-08-07T20:11:03.958Z,32.83
2022-08-07T20:13:50.248Z,33.50
2022-08-07T20:16:34.840Z,33.32
2022-08-07T20:19:10.070Z,33.26
2022-08-07T20:21:47.294Z,33.77
2022-08-07T20:24:22.694Z,34.00
2022-08-07T20:26:54.528Z,34.30
2022-08-07T20:29:48.671Z,33.76
2022-08-07T20:32:22.988Z,33.60
2022-08-07T20:34:58.054Z,34.79
2022-08-07T20:37:33.781Z,35.20
2022-08-07T20:40:05.409Z,35.03
2022-08-07T20:42:56.211Z,34.72
2022-08-07T20:45:32.790Z,35.44
2022-08-07T20:48:29.051Z,34.97
2022-08-07T20:51:02.952Z,34.24
2022-08-07T20:54:02.909Z,35.25
2022-08-07T20:56:28.609Z,35.51
2022-08-07T20:58:59.221Z,34.85
2022-08-07T21:01:36.322Z,35.04
2022-08-07T21:04:22.266Z,35.11
2022-08-07T21:06:55.103Z,34.48
2022-08-07T21:09:35.395Z,34.84
2022-08-07T21:12:28.870Z,34.91
2022-08-07T21:15:00.924Z,35.64
2022-08-07T21:18:01.876Z,35.54
2022-08-07T21:20:29.671Z,34.96
2022-08-07T21:23:27.878Z,34.35
2022-08-07T21:26:05.085Z,34.88
2022-08-07T21:28:50.898Z,34.92
2022-08-07T21:31:49.845Z,35.10
2022-08-07T21:35:05.829Z,34.94
2022-08-07T21:38:09.310Z,35.47
2022-08-07T21:40:43.660Z,35.19
2022-08-07T21:44:03.724Z,35.16
2022-08-07T21:46:45.436Z,35.48
2022-08-07T21:50:01.206Z,35.81
2022-08-07T21:52:37.075Z,36.21
2022-08-07T21:55:28.171Z,36.06
2022-08-07T21:58:35.835Z,36.15
2022-08-07T22:01:22.475Z,35.93
2022-08-07T22:04:17.737Z,36.02
2022-08-07T22:07:07.673Z,35.86
2022-08-07T22:09:53.793Z,35.72
2022-08-07T22:12:58.918Z,35.50
2022-08-07T22:16:42.409Z,35.71
2022-08-07T22:18:40.930Z,35.88
2022-08-07T22:21:21.270Z,35.83
2022-08-07T22:24:04.406Z,36.32
2022-08-07T22:26:53.893Z,37.55
2022-08-07T22:29:48.146Z,36.95
2022-08-07T22:32:35.472Z,36.26
2022-08-07T22:35:05.149Z,36.52
2022-08-07T22:38:25.810Z,37.13
2022-08-07T22:41:02.873Z,36.50
2022-08-07T22:43:37.522Z,36.45
2022-08-07T22:47:02.851Z,36.31
2022-08-07T22:49:11.204Z,36.11
2022-08-07T22:51:52.311Z,36.36
2022-08-07T22:54:49.252Z,36.74
2022-08-07T22:57:31.924Z,37.17
2022-08-07T23:00:16.944Z,37.72
2022-08-07T23:02:52.032Z,38.23
2022-08-07T23:06:15.216Z,39.08
2022-08-07T23:10:03.889Z,41.71
2022-08-07T23:12:53.875Z,42.11
2022-08-07T23:16:04.742Z,44.12
2022-08-07T23:18:32.097Z,42.00
2022-08-07T23:21:18.305Z,40.43
2022-08-07T23:24:16.724Z,41.28
2022-08-07T23:26:56.734Z,40.77
2022-08-07T23:29:43.313Z,41.82
2022-08-07T23:34:20.020Z,41.67
2022-08-07T23:35:58.484Z,45.57
2022-08-07T23:38:42.916Z,48.62
2022-08-07T23:41:33.410Z,49.92
2022-08-07T23:44:06.034Z,49.98
2022-08-07T23:46:43.328Z,49.94
2022-08-07T23:49:25.224Z,50.41
2022-08-07T23:52:59.825Z,50.34
2022-08-07T23:55:47.007Z,49.31
2022-08-07T23:58:26.377Z,46.73
